createdAt,value
2019-05-06T00:01:08.798Z,72.90
2019-05-06T00:06:14.557Z,73.10
2019-05-06T00:11:20.088Z,73.30
2019-05-06T00:16:25.587Z,73.70
2019-05-06T00:21:31.121Z,73.70
2019-05-06T00:27:04.864Z,73.50
2019-05-06T00:32:10.411Z,73.50
2019-05-06T00:37:15.826Z,73.30
2019-05-06T00:42:30.703Z,73.30
2019-05-06T00:47:36.192Z,73.40
2019-05-06T00:52:41.689Z,73.70
2019-05-06T00:57:47.160Z,73.80
2019-05-06T01:02:54.254Z,74.00
2019-05-06T01:07:59.915Z,74.10
2019-05-06T01:13:24.848Z,74.20
2019-05-06T01:18:30.369Z,74.10
2019-05-06T01:23:35.768Z,74.00
2019-05-06T01:28:41.215Z,74.00
2019-05-06T01:33:46.633Z,74.00
2019-05-06T01:39:18.176Z,73.80
2019-05-06T01:44:24.406Z,73.80
2019-05-06T01:49:29.982Z,73.70
2019-05-06T01:54:35.384Z,73.70
2019-05-06T01:59:40.927Z,73.60
2019-05-06T02:04:46.317Z,73.70
2019-05-06T02:09:53.677Z,73.70
2019-05-06T02:14:58.876Z,74.30
2019-05-06T02:20:04.806Z,73.60
2019-05-06T02:25:29.151Z,73.60
2019-05-06T02:31:05.652Z,73.60
2019-05-06T02:36:16.986Z,73.50
2019-05-06T02:41:23.301Z,73.50
2019-05-06T02:46:28.864Z,73.50
2019-05-06T02:51:34.501Z,73.30
2019-05-06T02:56:39.950Z,73.20
2019-05-06T03:01:45.372Z,73.10
2019-05-06T03:06:53.263Z,73.10
2019-05-06T03:11:58.196Z,73.10
2019-05-06T03:17:03.951Z,72.90
2019-05-06T03:22:28.409Z,73.00
2019-05-06T03:27:33.813Z,73.00
2019-05-06T03:33:14.385Z,73.30
2019-05-06T03:37:46.332Z,73.30
2019-05-06T03:42:53.932Z,73.30
2019-05-06T03:48:08.318Z,73.30
2019-05-06T03:53:14.116Z,73.40
2019-05-06T03:58:23.599Z,73.90
2019-05-06T04:03:42.401Z,74.40
2019-05-06T04:08:34.578Z,74.70
2019-05-06T04:13:40.096Z,75.00
2019-05-06T04:18:53.828Z,74.90
2019-05-06T04:24:15.308Z,75.30
2019-05-06T04:29:23.853Z,75.50
2019-05-06T04:34:28.011Z,75.50
2019-05-06T04:39:33.475Z,75.20
2019-05-06T04:44:38.974Z,75.00
2019-05-06T04:49:44.460Z,74.80
2019-05-06T04:54:50.010Z,74.60
2019-05-06T04:59:55.790Z,74.40
2019-05-06T05:05:04.248Z,74.10
2019-05-06T05:10:16.567Z,73.70
2019-05-06T05:15:34.200Z,73.40
2019-05-06T05:20:45.539Z,73.20
2019-05-06T05:25:46.952Z,72.70
2019-05-06T05:30:52.429Z,72.40
2019-05-06T05:35:57.864Z,72.10
2019-05-06T05:41:03.273Z,72.30
2019-05-06T05:46:08.679Z,71.20
2019-05-06T05:51:14.200Z,70.80
2019-05-06T05:56:19.705Z,70.50
2019-05-06T06:01:25.418Z,70.20
2019-05-06T06:06:32.970Z,70.00
2019-05-06T06:11:53.174Z,69.60
2019-05-06T06:17:13.032Z,69.30
2019-05-06T06:22:22.771Z,68.90
2019-05-06T06:27:30.199Z,68.60
2019-05-06T06:32:35.640Z,68.60
2019-05-06T06:37:52.347Z,68.10
2019-05-06T06:43:04.862Z,66.70
2019-05-06T06:48:12.220Z,64.40
2019-05-06T06:53:17.453Z,61.10
2019-05-06T06:58:33.426Z,59.00
2019-05-06T07:03:46.676Z,58.50
2019-05-06T07:08:52.427Z,57.80
2019-05-06T07:13:57.814Z,57.20
2019-05-06T07:19:03.416Z,56.40
2019-05-06T07:24:08.834Z,55.60
2019-05-06T07:29:23.105Z,55.30
2019-05-06T07:34:22.902Z,55.20
2019-05-06T07:39:28.628Z,55.50
2019-05-06T07:44:53.127Z,55.70
2019-05-06T07:49:58.569Z,56.10
2019-05-06T07:55:04.063Z,57.00
2019-05-06T08:00:09.616Z,58.30
2019-05-06T08:05:15.046Z,59.10
2019-05-06T08:10:22.041Z,59.40
2019-05-06T08:15:27.855Z,59.30
2019-05-06T08:20:39.480Z,59.10
2019-05-06T08:26:08.356Z,58.90
2019-05-06T08:31:02.373Z,58.40
2019-05-06T08:36:14.127Z,57.90
2019-05-06T08:41:18.035Z,57.70
2019-05-06T08:46:23.727Z,58.00
2019-05-06T08:51:48.089Z,58.00
2019-05-06T08:56:53.687Z,57.10
2019-05-06T09:02:00.111Z,56.10
2019-05-06T09:07:05.602Z,54.20
2019-05-06T09:12:12.964Z,50.50
2019-05-06T09:17:18.345Z,49.10
2019-05-06T09:22:23.762Z,49.40
2019-05-06T09:27:48.083Z,50.10
2019-05-06T09:32:53.528Z,50.10
2019-05-06T09:37:59.031Z,49.50
2019-05-06T09:43:04.869Z,49.50
2019-05-06T09:48:22.424Z,49.00
2019-05-06T09:53:34.265Z,48.60
2019-05-06T09:58:43.121Z,48.00
2019-05-06T10:03:48.969Z,46.80
2019-05-06T10:08:54.407Z,46.00
2019-05-06T10:13:59.832Z,45.90
2019-05-06T10:19:05.568Z,45.00
2019-05-06T10:24:11.025Z,43.70
2019-05-06T10:29:24.243Z,42.60
2019-05-06T10:34:29.654Z,41.40
2019-05-06T10:39:40.531Z,41.80
2019-05-06T10:45:07.065Z,43.00
2019-05-06T10:50:12.693Z,45.00
2019-05-06T10:55:18.199Z,46.40
2019-05-06T11:00:23.776Z,47.00
2019-05-06T11:05:29.190Z,47.30
2019-05-06T11:10:40.841Z,47.30
2019-05-06T11:15:43.350Z,47.50
2019-05-06T11:20:49.239Z,47.90
2019-05-06T11:25:54.731Z,48.30
2019-05-06T11:31:19.120Z,48.70
2019-05-06T11:36:32.616Z,48.20
2019-05-06T11:42:01.356Z,47.10
2019-05-06T11:46:55.292Z,46.00
2019-05-06T11:52:02.434Z,45.30
2019-05-06T11:57:09.660Z,44.90
2019-05-06T12:02:18.048Z,44.20
2019-05-06T12:07:24.438Z,43.70
2019-05-06T12:12:30.389Z,43.00
2019-05-06T12:17:35.878Z,42.50
2019-05-06T12:22:42.331Z,42.60
2019-05-06T12:27:48.156Z,42.50
2019-05-06T12:33:13.039Z,42.40
2019-05-06T12:38:30.425Z,42.50
2019-05-06T12:43:56.851Z,42.30
2019-05-06T12:49:03.171Z,42.30
2019-05-06T12:54:08.856Z,41.30
2019-05-06T12:59:14.410Z,41.00
2019-05-06T13:04:43.327Z,40.40
2019-05-06T13:09:27.245Z,40.20
2019-05-06T13:14:33.246Z,39.30
2019-05-06T13:19:38.844Z,39.10
2019-05-06T13:24:44.299Z,39.30
2019-05-06T13:29:50.509Z,39.30
2019-05-06T13:34:59.022Z,39.00
2019-05-06T13:40:03.428Z,39.50
2019-05-06T13:45:09.198Z,39.50
2019-05-06T13:50:16.355Z,39.00
2019-05-06T13:55:22.223Z,38.60
2019-05-06T14:00:27.864Z,38.30
2019-05-06T14:05:33.292Z,38.10
2019-05-06T14:10:38.786Z,38.30
2019-05-06T14:15:44.373Z,38.10
2019-05-06T14:20:51.969Z,38.00
2019-05-06T14:26:22.884Z,38.00
2019-05-06T14:31:44.824Z,38.60
2019-05-06T14:36:50.252Z,38.70
2019-05-06T14:41:56.621Z,39.50
2019-05-06T14:47:09.982Z,39.80
2019-05-06T14:52:15.609Z,40.10
2019-05-06T14:57:22.749Z,39.80
2019-05-06T15:02:28.893Z,39.30
2019-05-06T15:07:34.369Z,39.30
2019-05-06T15:12:39.820Z,39.60
2019-05-06T15:17:45.385Z,39.40
2019-05-06T15:22:52.778Z,39.50
2019-05-06T15:27:58.113Z,39.40
2019-05-06T15:33:04.832Z,39.70
2019-05-06T15:38:15.715Z,39.80
2019-05-06T15:43:22.027Z,40.20
2019-05-06T15:48:27.640Z,40.40
2019-05-06T15:53:33.315Z,41.10
2019-05-06T15:58:38.907Z,42.10
2019-05-06T16:03:44.377Z,45.00
2019-05-06T16:08:49.832Z,48.70
2019-05-06T16:13:55.347Z,51.10
2019-05-06T16:19:03.840Z,53.50
2019-05-06T16:24:19.101Z,55.10
2019-05-06T16:29:35.608Z,56.50
2019-05-06T16:34:43.020Z,57.60
2019-05-06T16:39:48.213Z,58.50
2019-05-06T16:44:53.609Z,59.30
2019-05-06T16:49:59.047Z,59.80
2019-05-06T16:55:05.988Z,60.50
2019-05-06T17:00:13.624Z,61.40
2019-05-06T17:05:53.018Z,62.10
2019-05-06T17:10:59.409Z,62.50
2019-05-06T17:16:04.962Z,67.80
2019-05-06T17:21:12.971Z,65.90
2019-05-06T17:26:18.673Z,65.90
2019-05-06T17:31:58.365Z,66.10
2019-05-06T17:37:12.467Z,66.40
2019-05-06T17:42:18.396Z,66.60
2019-05-06T17:47:32.598Z,66.90
2019-05-06T17:52:38.871Z,66.70
2019-05-06T17:57:45.198Z,66.70
2019-05-06T18:02:52.640Z,66.70
2019-05-06T18:08:02.911Z,66.70
2019-05-06T18:13:08.948Z,67.10
2019-05-06T18:18:14.403Z,67.20
2019-05-06T18:23:22.177Z,67.30
2019-05-06T18:28:27.016Z,67.80
2019-05-06T18:33:33.001Z,67.90
2019-05-06T18:38:38.513Z,68.50
2019-05-06T18:43:43.954Z,68.60
2019-05-06T18:48:49.471Z,68.80
2019-05-06T18:53:55.073Z,68.80
2019-05-06T18:59:02.677Z,69.00
2019-05-06T19:04:15.365Z,68.50
2019-05-06T19:09:42.581Z,68.60
2019-05-06T19:14:48.211Z,68.60
2019-05-06T19:19:53.752Z,68.50
2019-05-06T19:24:59.304Z,68.70
2019-05-06T19:30:05.201Z,69.00
2019-05-06T19:35:13.033Z,69.00
2019-05-06T19:40:17.790Z,69.10
2019-05-06T19:45:23.223Z,69.70
2019-05-06T19:50:28.691Z,69.90
2019-05-06T19:55:34.157Z,70.50
2019-05-06T20:00:41.913Z,70.60
2019-05-06T20:06:04.098Z,71.00
2019-05-06T20:11:28.390Z,71.00
2019-05-06T20:16:33.816Z,71.30
2019-05-06T20:21:39.287Z,71.90
2019-05-06T20:26:44.841Z,71.90
2019-05-06T20:31:50.260Z,72.20
2019-05-06T20:36:55.687Z,72.30
2019-05-06T20:42:02.860Z,72.50
2019-05-06T20:47:08.435Z,73.00
2019-05-06T20:52:13.943Z,72.90
2019-05-06T20:57:19.343Z,73.10
2019-05-06T21:02:25.862Z,73.10
2019-05-06T21:07:32.405Z,72.80
2019-05-06T21:12:37.913Z,73.20
2019-05-06T21:17:43.427Z,73.60
2019-05-06T21:22:49.420Z,73.70
2019-05-06T21:27:55.065Z,73.90
2019-05-06T21:33:00.482Z,73.90
2019-05-06T21:38:07.947Z,74.10
2019-05-06T21:43:13.425Z,74.30
2019-05-06T21:48:18.894Z,74.30
2019-05-06T21:53:24.341Z,74.40
2019-05-06T21:58:29.903Z,74.50
2019-05-06T22:03:35.420Z,74.60
2019-05-06T22:08:42.401Z,74.80
2019-05-06T22:13:58.948Z,74.90
2019-05-06T22:18:55.185Z,75.00
2019-05-06T22:24:04.303Z,75.20
2019-05-06T22:29:09.103Z,75.20
2019-05-06T22:34:15.800Z,75.30
2019-05-06T22:39:22.658Z,75.40
2019-05-06T22:44:28.131Z,75.70
2019-05-06T22:49:33.565Z,75.80
2019-05-06T22:54:39.035Z,76.60
2019-05-06T22:59:44.707Z,75.90
2019-05-06T23:04:53.150Z,75.90
2019-05-06T23:09:58.623Z,75.90
2019-05-06T23:15:04.312Z,75.90
2019-05-06T23:20:09.750Z,76.00
2019-05-06T23:25:15.172Z,76.10
2019-05-06T23:30:20.684Z,76.20
2019-05-06T23:35:26.140Z,76.30
2019-05-06T23:41:25.121Z,76.40
2019-05-06T23:47:24.406Z,76.60
2019-05-06T23:53:23.220Z,76.70
2019-05-06T23:58:26.403Z,76.80
